sensor_id;sensor_type;location;lat;lon;timestamp;pressure;altitude;pressure_sealevel;temperature;humidity
11413;BME280;5762;43.256;26.960;2023-12-04T00:00:58;101864.69;;;1.57;100.00
11413;BME280;5762;43.256;26.960;2023-12-04T00:03:27;101870.59;;;1.52;100.00
11413;BME280;5762;43.256;26.960;2023-12-04T00:05:55;101884.71;;;1.57;100.00
11413;BME280;5762;43.256;26.960;2023-12-04T00:08:24;101899.02;;;1.60;100.00
11413;BME280;5762;43.256;26.960;2023-12-04T00:10:53;101913.28;;;1.67;100.00
11413;BME280;5762;43.256;26.960;2023-12-04T00:13:22;101913.05;;;1.73;100.00
11413;BME280;5762;43.256;26.960;2023-12-04T00:15:50;101910.89;;;1.72;100.00
11413;BME280;5762;43.256;26.960;2023-12-04T00:18:19;101906.56;;;1.71;100.00
11413;BME280;5762;43.256;26.960;2023-12-04T00:20:47;101918.30;;;1.77;100.00
11413;BME280;5762;43.256;26.960;2023-12-04T00:23:16;101919.40;;;1.72;100.00
11413;BME280;5762;43.256;26.960;2023-12-04T00:25:44;101909.23;;;1.71;100.00
11413;BME280;5762;43.256;26.960;2023-12-04T00:28:13;101911.49;;;1.74;100.00
11413;BME280;5762;43.256;26.960;2023-12-04T00:30:45;101918.81;;;1.76;100.00
11413;BME280;5762;43.256;26.960;2023-12-04T00:33:13;101909.97;;;1.65;100.00
11413;BME280;5762;43.256;26.960;2023-12-04T00:35:47;101902.42;;;1.54;100.00
11413;BME280;5762;43.256;26.960;2023-12-04T00:38:11;101913.47;;;1.51;100.00
11413;BME280;5762;43.256;26.960;2023-12-04T00:40:40;101908.59;;;1.40;100.00
11413;BME280;5762;43.256;26.960;2023-12-04T00:43:08;101923.38;;;1.31;100.00
11413;BME280;5762;43.256;26.960;2023-12-04T00:45:37;101933.77;;;1.26;100.00
11413;BME280;5762;43.256;26.960;2023-12-04T00:48:06;101944.62;;;1.25;100.00
11413;BME280;5762;43.256;26.960;2023-12-04T00:50:35;101964.95;;;1.26;100.00
11413;BME280;5762;43.256;26.960;2023-12-04T00:53:04;101974.50;;;1.20;100.00
11413;BME280;5762;43.256;26.960;2023-12-04T00:55:32;101985.20;;;1.16;100.00
11413;BME280;5762;43.256;26.960;2023-12-04T00:58:01;102003.33;;;1.21;100.00
11413;BME280;5762;43.256;26.960;2023-12-04T01:00:30;102024.85;;;1.19;100.00
11413;BME280;5762;43.256;26.960;2023-12-04T01:02:59;102035.88;;;1.16;100.00
11413;BME280;5762;43.256;26.960;2023-12-04T01:05:27;102042.40;;;1.14;100.00
11413;BME280;5762;43.256;26.960;2023-12-04T01:07:55;102048.62;;;1.06;100.00
11413;BME280;5762;43.256;26.960;2023-12-04T01:10:23;102050.52;;;1.02;100.00
11413;BME280;5762;43.256;26.960;2023-12-04T01:12:52;102059.02;;;1.01;100.00
11413;BME280;5762;43.256;26.960;2023-12-04T01:15:21;102061.06;;;0.95;100.00
11413;BME280;5762;43.256;26.960;2023-12-04T01:17:50;102066.89;;;0.94;100.00
11413;BME280;5762;43.256;26.960;2023-12-04T01:20:19;102072.94;;;0.88;100.00
11413;BME280;5762;43.256;26.960;2023-12-04T01:22:48;102076.30;;;0.82;100.00
11413;BME280;5762;43.256;26.960;2023-12-04T01:25:17;102080.83;;;0.78;100.00
11413;BME280;5762;43.256;26.960;2023-12-04T01:27:46;102075.67;;;0.76;100.00
11413;BME280;5762;43.256;26.960;2023-12-04T01:30:14;102079.52;;;0.74;100.00
11413;BME280;5762;43.256;26.960;2023-12-04T01:32:43;102082.20;;;0.70;100.00
11413;BME280;5762;43.256;26.960;2023-12-04T01:35:12;102086.75;;;0.65;100.00
11413;BME280;5762;43.256;26.960;2023-12-04T01:37:41;102079.45;;;0.59;100.00
11413;BME280;5762;43.256;26.960;2023-12-04T01:40:09;102087.63;;;0.57;100.00
11413;BME280;5762;43.256;26.960;2023-12-04T01:42:38;102087.10;;;0.62;100.00
11413;BME280;5762;43.256;26.960;2023-12-04T01:45:07;102083.45;;;0.59;100.00
11413;BME280;5762;43.256;26.960;2023-12-04T01:47:36;102083.63;;;0.57;100.00
11413;BME280;5762;43.256;26.960;2023-12-04T01:50:05;102078.63;;;0.58;100.00
11413;BME280;5762;43.256;26.960;2023-12-04T01:52:33;102056.78;;;0.63;100.00
11413;BME280;5762;43.256;26.960;2023-12-04T01:55:03;102040.80;;;0.63;100.00
11413;BME280;5762;43.256;26.960;2023-12-04T01:57:34;102042.76;;;0.69;100.00
11413;BME280;5762;43.256;26.960;2023-12-04T02:00:02;102027.30;;;0.64;100.00
11413;BME280;5762;43.256;26.960;2023-12-04T02:02:31;102023.63;;;0.65;100.00
11413;BME280;5762;43.256;26.960;2023-12-04T02:05:00;102019.80;;;0.64;100.00
11413;BME280;5762;43.256;26.960;2023-12-04T02:07:29;102020.28;;;0.68;100.00
11413;BME280;5762;43.256;26.960;2023-12-04T02:09:58;102013.30;;;0.66;100.00
11413;BME280;5762;43.256;26.960;2023-12-04T02:12:26;102007.91;;;0.71;100.00
11413;BME280;5762;43.256;26.960;2023-12-04T02:14:55;102001.22;;;0.75;100.00
11413;BME280;5762;43.256;26.960;2023-12-04T02:17:24;101995.41;;;0.71;100.00
11413;BME280;5762;43.256;26.960;2023-12-04T02:19:53;101987.71;;;0.76;100.00
11413;BME280;5762;43.256;26.960;2023-12-04T02:22:25;101997.13;;;0.87;100.00
11413;BME280;5762;43.256;26.960;2023-12-04T02:24:53;102000.01;;;0.81;100.00
11413;BME280;5762;43.256;26.960;2023-12-04T02:27:23;101994.17;;;0.82;100.00
11413;BME280;5762;43.256;26.960;2023-12-04T02:29:52;101996.66;;;0.83;100.00
11413;BME280;5762;43.256;26.960;2023-12-04T02:32:21;101985.52;;;0.80;100.00
11413;BME280;5762;43.256;26.960;2023-12-04T02:34:50;101984.19;;;0.80;100.00
11413;BME280;5762;43.256;26.960;2023-12-04T02:37:20;101976.02;;;0.81;100.00
11413;BME280;5762;43.256;26.960;2023-12-04T02:39:49;101976.84;;;0.82;100.00
11413;BME280;5762;43.256;26.960;2023-12-04T02:42:18;101991.77;;;0.91;100.00
11413;BME280;5762;43.256;26.960;2023-12-04T02:44:46;101974.30;;;0.88;100.00
11413;BME280;5762;43.256;26.960;2023-12-04T02:47:16;101950.95;;;0.90;100.00
11413;BME280;5762;43.256;26.960;2023-12-04T02:49:44;101926.45;;;0.91;100.00
11413;BME280;5762;43.256;26.960;2023-12-04T02:52:12;101917.77;;;0.93;100.00
11413;BME280;5762;43.256;26.960;2023-12-04T02:59:52;101884.87;;;1.00;100.00
11413;BME280;5762;43.256;26.960;2023-12-04T03:02:21;101864.70;;;1.02;100.00
11413;BME280;5762;43.256;26.960;2023-12-04T03:04:50;101855.98;;;1.04;100.00
11413;BME280;5762;43.256;26.960;2023-12-04T03:07:18;101848.38;;;1.01;100.00
11413;BME280;5762;43.256;26.960;2023-12-04T03:09:47;101834.04;;;1.02;100.00
11413;BME280;5762;43.256;26.960;2023-12-04T03:12:16;101826.04;;;1.02;100.00
11413;BME280;5762;43.256;26.960;2023-12-04T03:14:45;101823.19;;;1.04;100.00
11413;BME280;5762;43.256;26.960;2023-12-04T03:17:14;101827.55;;;1.00;100.00
11413;BME280;5762;43.256;26.960;2023-12-04T03:19:42;101818.66;;;1.04;100.00
11413;BME280;5762;43.256;26.960;2023-12-04T03:22:12;101814.04;;;1.02;100.00
11413;BME280;5762;43.256;26.960;2023-12-04T03:24:41;101809.97;;;1.06;100.00
11413;BME280;5762;43.256;26.960;2023-12-04T03:27:09;101793.03;;;1.03;100.00
11413;BME280;5762;43.256;26.960;2023-12-04T03:29:38;101781.41;;;1.00;100.00
11413;BME280;5762;43.256;26.960;2023-12-04T03:32:07;101779.48;;;1.05;100.00
11413;BME280;5762;43.256;26.960;2023-12-04T03:34:36;101765.73;;;1.01;100.00
11413;BME280;5762;43.256;26.960;2023-12-04T03:37:05;101759.70;;;1.03;100.00
11413;BME280;5762;43.256;26.960;2023-12-04T03:39:33;101752.39;;;1.01;100.00
11413;BME280;5762;43.256;26.960;2023-12-04T03:42:01;101741.96;;;0.95;100.00
11413;BME280;5762;43.256;26.960;2023-12-04T03:44:30;101726.47;;;0.95;100.00
11413;BME280;5762;43.256;26.960;2023-12-04T03:46:58;101739.34;;;0.91;100.00
11413;BME280;5762;43.256;26.960;2023-12-04T03:49:27;101751.66;;;0.92;100.00
11413;BME280;5762;43.256;26.960;2023-12-04T03:51:55;101761.68;;;0.90;100.00
11413;BME280;5762;43.256;26.960;2023-12-04T03:54:24;101773.22;;;0.87;100.00
11413;BME280;5762;43.256;26.960;2023-12-04T03:56:53;101767.56;;;0.86;100.00
11413;BME280;5762;43.256;26.960;2023-12-04T03:59:21;101772.20;;;0.88;100.00
11413;BME280;5762;43.256;26.960;2023-12-04T04:01:50;101778.73;;;0.85;100.00
11413;BME280;5762;43.256;26.960;2023-12-04T04:04:19;101796.09;;;0.81;100.00
11413;BME280;5762;43.256;26.960;2023-12-04T04:06:51;101802.30;;;0.78;100.00
11413;BME280;5762;43.256;26.960;2023-12-04T04:09:19;101813.24;;;0.83;100.00
11413;BME280;5762;43.256;26.960;2023-12-04T04:11:47;101816.78;;;0.79;100.00
11413;BME280;5762;43.256;26.960;2023-12-04T04:14:16;101820.27;;;0.80;100.00
11413;BME280;5762;43.256;26.960;2023-12-04T04:16:45;101822.94;;;0.80;100.00
11413;BME280;5762;43.256;26.960;2023-12-04T04:19:13;101808.31;;;0.76;100.00
11413;BME280;5762;43.256;26.960;2023-12-04T04:21:43;101816.63;;;0.77;100.00
11413;BME280;5762;43.256;26.960;2023-12-04T04:24:11;101820.27;;;0.80;100.00
11413;BME280;5762;43.256;26.960;2023-12-04T04:26:39;101817.23;;;0.83;100.00
11413;BME280;5762;43.256;26.960;2023-12-04T04:29:07;101807.27;;;0.81;100.00
11413;BME280;5762;43.256;26.960;2023-12-04T04:31:36;101802.95;;;0.80;100.00
11413;BME280;5762;43.256;26.960;2023-12-04T04:34:05;101780.29;;;0.80;100.00
11413;BME280;5762;43.256;26.960;2023-12-04T04:36:33;101777.62;;;0.80;100.00
11413;BME280;5762;43.256;26.960;2023-12-04T04:39:07;101761.49;;;0.77;100.00
11413;BME280;5762;43.256;26.960;2023-12-04T04:41:32;101761.31;;;0.79;100.00
11413;BME280;5762;43.256;26.960;2023-12-04T04:44:01;101761.31;;;0.79;100.00
11413;BME280;5762;43.256;26.960;2023-12-04T04:46:29;101765.95;;;0.81;100.00
11413;BME280;5762;43.256;26.960;2023-12-04T04:48:58;101761.27;;;0.83;100.00
11413;BME280;5762;43.256;26.960;2023-12-04T04:51:28;101750.28;;;0.82;100.00
11413;BME280;5762;43.256;26.960;2023-12-04T04:53:56;101753.77;;;0.82;100.00
11413;BME280;5762;43.256;26.960;2023-12-04T04:56:25;101758.28;;;0.82;100.00
11413;BME280;5762;43.256;26.960;2023-12-04T04:58:53;101772.89;;;0.86;100.00
11413;BME280;5762;43.256;26.960;2023-12-04T05:01:21;101775.47;;;0.94;100.00
11413;BME280;5762;43.256;26.960;2023-12-04T05:03:49;101763.30;;;0.95;100.00
11413;BME280;5762;43.256;26.960;2023-12-04T05:06:18;101757.27;;;0.97;100.00
11413;BME280;5762;43.256;26.960;2023-12-04T05:08:47;101752.81;;;0.94;100.00
11413;BME280;5762;43.256;26.960;2023-12-04T05:11:16;101752.39;;;1.01;100.00
11413;BME280;5762;43.256;26.960;2023-12-04T05:13:45;101747.30;;;1.06;100.00
11413;BME280;5762;43.256;26.960;2023-12-04T05:16:14;101749.41;;;1.11;100.00
11413;BME280;5762;43.256;26.960;2023-12-04T05:18:41;101764.12;;;1.21;100.00
11413;BME280;5762;43.256;26.960;2023-12-04T05:21:13;101762.88;;;1.13;100.00
11413;BME280;5762;43.256;26.960;2023-12-04T05:23:41;101748.72;;;1.02;100.00
11413;BME280;5762;43.256;26.960;2023-12-04T05:26:10;101741.59;;;1.09;100.00
11413;BME280;5762;43.256;26.960;2023-12-04T05:28:39;101730.66;;;1.04;100.00
11413;BME280;5762;43.256;26.960;2023-12-04T05:31:08;101723.81;;;0.95;100.00
11413;BME280;5762;43.256;26.960;2023-12-04T05:33:36;101723.48;;;0.94;100.00
11413;BME280;5762;43.256;26.960;2023-12-04T05:36:05;101722.16;;;0.94;100.00
11413;BME280;5762;43.256;26.960;2023-12-04T05:38:34;101711.30;;;0.95;100.00
11413;BME280;5762;43.256;26.960;2023-12-04T05:41:02;101720.59;;;0.99;100.00
11413;BME280;5762;43.256;26.960;2023-12-04T05:43:31;101711.95;;;0.97;100.00
11413;BME280;5762;43.256;26.960;2023-12-04T05:46:00;101708.96;;;0.96;100.00
11413;BME280;5762;43.256;26.960;2023-12-04T05:48:28;101703.03;;;0.90;100.00
11413;BME280;5762;43.256;26.960;2023-12-04T05:50:58;101715.22;;;0.89;100.00
11413;BME280;5762;43.256;26.960;2023-12-04T05:53:26;101716.41;;;0.86;100.00
11413;BME280;5762;43.256;26.960;2023-12-04T05:55:55;101719.44;;;0.98;100.00
11413;BME280;5762;43.256;26.960;2023-12-04T05:58:23;101735.58;;;1.11;100.00
11413;BME280;5762;43.256;26.960;2023-12-04T06:00:51;101773.64;;;1.20;100.00
11413;BME280;5762;43.256;26.960;2023-12-04T06:03:20;101797.78;;;1.22;100.00
11413;BME280;5762;43.256;26.960;2023-12-04T06:05:49;101833.33;;;1.44;100.00
11413;BME280;5762;43.256;26.960;2023-12-04T06:08:18;101856.73;;;1.53;100.00
11413;BME280;5762;43.256;26.960;2023-12-04T06:10:46;101863.55;;;1.55;100.00
11413;BME280;5762;43.256;26.960;2023-12-04T06:13:15;101871.95;;;1.63;100.00
11413;BME280;5762;43.256;26.960;2023-12-04T06:15:44;101869.39;;;1.55;100.00
11413;BME280;5762;43.256;26.960;2023-12-04T06:18:13;101867.55;;;1.55;100.00
11413;BME280;5762;43.256;26.960;2023-12-04T06:20:41;101845.84;;;1.44;100.00
11413;BME280;5762;43.256;26.960;2023-12-04T06:23:10;101838.11;;;1.49;100.00
11413;BME280;5762;43.256;26.960;2023-12-04T06:25:39;101811.98;;;1.44;100.00
11413;BME280;5762;43.256;26.960;2023-12-04T06:28:08;101800.70;;;1.53;100.00
11413;BME280;5762;43.256;26.960;2023-12-04T06:30:37;101791.49;;;1.55;100.00
11413;BME280;5762;43.256;26.960;2023-12-04T06:33:06;101793.52;;;1.53;100.00
11413;BME280;5762;43.256;26.960;2023-12-04T06:35:34;101820.23;;;1.64;100.00
11413;BME280;5762;43.256;26.960;2023-12-04T06:38:05;101828.64;;;1.72;100.00
11413;BME280;5762;43.256;26.960;2023-12-04T06:40:33;101824.88;;;1.66;100.00
11413;BME280;5762;43.256;26.960;2023-12-04T06:43:05;101823.48;;;1.70;100.00
11413;BME280;5762;43.256;26.960;2023-12-04T06:45:34;101810.25;;;1.62;100.00
11413;BME280;5762;43.256;26.960;2023-12-04T06:48:03;101790.55;;;1.63;100.00
11413;BME280;5762;43.256;26.960;2023-12-04T06:50:31;101767.17;;;1.65;100.00
11413;BME280;5762;43.256;26.960;2023-12-04T06:53:00;101736.54;;;1.61;100.00
11413;BME280;5762;43.256;26.960;2023-12-04T06:55:29;101726.31;;;1.64;100.00
11413;BME280;5762;43.256;26.960;2023-12-04T06:57:58;101700.31;;;1.52;100.00
11413;BME280;5762;43.256;26.960;2023-12-04T07:00:26;101671.72;;;1.46;100.00
11413;BME280;5762;43.256;26.960;2023-12-04T07:02:55;101664.30;;;1.52;100.00
11413;BME280;5762;43.256;26.960;2023-12-04T07:05:24;101685.77;;;1.54;100.00
11413;BME280;5762;43.256;26.960;2023-12-04T07:07:53;101733.56;;;1.71;100.00
11413;BME280;5762;43.256;26.960;2023-12-04T07:10:22;101763.17;;;1.65;100.00
11413;BME280;5762;43.256;26.960;2023-12-04T07:12:51;101786.18;;;1.66;100.00
11413;BME280;5762;43.256;26.960;2023-12-04T07:15:20;101796.91;;;1.83;100.00
11413;BME280;5762;43.256;26.960;2023-12-04T07:17:48;101817.84;;;1.90;100.00
11413;BME280;5762;43.256;26.960;2023-12-04T07:20:17;101815.03;;;1.88;100.00
11413;BME280;5762;43.256;26.960;2023-12-04T07:22:46;101809.45;;;1.93;100.00
11413;BME280;5762;43.256;26.960;2023-12-04T07:25:15;101802.64;;;1.91;100.00
11413;BME280;5762;43.256;26.960;2023-12-04T07:27:43;101806.34;;;2.00;100.00
11413;BME280;5762;43.256;26.960;2023-12-04T07:30:12;101820.11;;;2.15;100.00
11413;BME280;5762;43.256;26.960;2023-12-04T07:32:41;101794.58;;;2.06;100.00
11413;BME280;5762;43.256;26.960;2023-12-04T07:35:13;101743.52;;;1.94;100.00
11413;BME280;5762;43.256;26.960;2023-12-04T07:37:41;101696.16;;;1.81;100.00
11413;BME280;5762;43.256;26.960;2023-12-04T07:40:11;101684.97;;;1.82;100.00
11413;BME280;5762;43.256;26.960;2023-12-04T07:42:40;101668.80;;;1.62;100.00
11413;BME280;5762;43.256;26.960;2023-12-04T07:45:09;101658.38;;;1.46;100.00
11413;BME280;5762;43.256;26.960;2023-12-04T07:47:38;101651.42;;;1.34;100.00
11413;BME280;5762;43.256;26.960;2023-12-04T07:50:07;101658.34;;;1.28;100.00
11413;BME280;5762;43.256;26.960;2023-12-04T07:52:35;101669.71;;;1.37;100.00
11413;BME280;5762;43.256;26.960;2023-12-04T07:55:04;101676.42;;;1.44;100.00
11413;BME280;5762;43.256;26.960;2023-12-04T07:57:33;101684.42;;;1.44;100.00
11413;BME280;5762;43.256;26.960;2023-12-04T08:00:02;101684.39;;;1.37;100.00
11413;BME280;5762;43.256;26.960;2023-12-04T08:02:30;101682.55;;;1.38;100.00
11413;BME280;5762;43.256;26.960;2023-12-04T08:05:03;101684.17;;;1.49;100.00
11413;BME280;5762;43.256;26.960;2023-12-04T08:07:29;101688.88;;;1.58;100.00
11413;BME280;5762;43.256;26.960;2023-12-04T08:09:58;101692.77;;;1.66;100.00
11413;BME280;5762;43.256;26.960;2023-12-04T08:12:26;101685.14;;;1.63;100.00
11413;BME280;5762;43.256;26.960;2023-12-04T08:14:55;101661.88;;;1.57;100.00
11413;BME280;5762;43.256;26.960;2023-12-04T08:17:23;101631.25;;;1.63;100.00
11413;BME280;5762;43.256;26.960;2023-12-04T08:19:51;101625.48;;;1.77;100.00
11413;BME280;5762;43.256;26.960;2023-12-04T08:22:21;101589.23;;;1.72;100.00
11413;BME280;5762;43.256;26.960;2023-12-04T08:24:49;101551.77;;;1.76;100.00
11413;BME280;5762;43.256;26.960;2023-12-04T08:27:18;101532.36;;;1.72;100.00
11413;BME280;5762;43.256;26.960;2023-12-04T08:29:47;101503.95;;;1.81;100.00
11413;BME280;5762;43.256;26.960;2023-12-04T08:32:16;101475.81;;;1.79;100.00
11413;BME280;5762;43.256;26.960;2023-12-04T08:34:45;101506.08;;;1.75;100.00
11413;BME280;5762;43.256;26.960;2023-12-04T08:37:13;101526.64;;;1.81;100.00
11413;BME280;5762;43.256;26.960;2023-12-04T08:39:41;101530.42;;;1.93;100.00
11413;BME280;5762;43.256;26.960;2023-12-04T08:42:11;101538.59;;;2.03;100.00
11413;BME280;5762;43.256;26.960;2023-12-04T08:44:39;101495.20;;;1.94;100.00
11413;BME280;5762;43.256;26.960;2023-12-04T08:47:07;101447.25;;;1.96;100.00
11413;BME280;5762;43.256;26.960;2023-12-04T08:49:36;101435.95;;;1.94;100.00
11413;BME280;5762;43.256;26.960;2023-12-04T08:52:05;101419.87;;;2.05;100.00
11413;BME280;5762;43.256;26.960;2023-12-04T08:54:34;101420.77;;;2.08;100.00
11413;BME280;5762;43.256;26.960;2023-12-04T08:57:05;101454.36;;;2.00;100.00
11413;BME280;5762;43.256;26.960;2023-12-04T08:59:34;101436.03;;;1.90;100.00
11413;BME280;5762;43.256;26.960;2023-12-04T09:02:02;101424.89;;;1.80;100.00
11413;BME280;5762;43.256;26.960;2023-12-04T09:04:31;101389.06;;;1.79;100.00
11413;BME280;5762;43.256;26.960;2023-12-04T09:07:00;101391.02;;;1.81;100.00
11413;BME280;5762;43.256;26.960;2023-12-04T09:09:29;101380.34;;;1.81;100.00
11413;BME280;5762;43.256;26.960;2023-12-04T09:11:58;101388.17;;;1.89;100.00
11413;BME280;5762;43.256;26.960;2023-12-04T09:14:26;101358.50;;;1.88;100.00
11413;BME280;5762;43.256;26.960;2023-12-04T09:16:55;101376.50;;;1.96;100.00
11413;BME280;5762;43.256;26.960;2023-12-04T09:19:23;101379.79;;;1.98;100.00
11413;BME280;5762;43.256;26.960;2023-12-04T09:21:52;101392.74;;;2.01;100.00
11413;BME280;5762;43.256;26.960;2023-12-04T09:24:21;101391.20;;;2.03;100.00
11413;BME280;5762;43.256;26.960;2023-12-04T09:26:50;101414.19;;;1.97;100.00
11413;BME280;5762;43.256;26.960;2023-12-04T09:29:19;101406.92;;;1.78;100.00
11413;BME280;5762;43.256;26.960;2023-12-04T09:31:51;101448.48;;;1.70;100.00
11413;BME280;5762;43.256;26.960;2023-12-04T09:34:20;101474.47;;;1.72;100.00
11413;BME280;5762;43.256;26.960;2023-12-04T09:36:49;101482.47;;;1.72;100.00
11413;BME280;5762;43.256;26.960;2023-12-04T09:39:18;101476.08;;;1.66;100.00
11413;BME280;5762;43.256;26.960;2023-12-04T09:41:46;101476.91;;;1.74;100.00
11413;BME280;5762;43.256;26.960;2023-12-04T09:44:15;101484.68;;;1.86;100.00
11413;BME280;5762;43.256;26.960;2023-12-04T09:46:44;101456.38;;;1.74;100.00
11413;BME280;5762;43.256;26.960;2023-12-04T09:49:12;101440.79;;;1.71;100.00
11413;BME280;5762;43.256;26.960;2023-12-04T09:51:41;101426.78;;;1.62;100.00
11413;BME280;5762;43.256;26.960;2023-12-04T09:54:09;101406.48;;;1.68;100.00
11413;BME280;5762;43.256;26.960;2023-12-04T09:56:39;101391.15;;;1.59;100.00
11413;BME280;5762;43.256;26.960;2023-12-04T09:59:08;101400.14;;;1.52;100.00
11413;BME280;5762;43.256;26.960;2023-12-04T10:01:37;101407.20;;;1.49;100.00
11413;BME280;5762;43.256;26.960;2023-12-04T10:04:06;101412.77;;;1.54;100.00
11413;BME280;5762;43.256;26.960;2023-12-04T10:06:36;101432.43;;;1.63;100.00
11413;BME280;5762;43.256;26.960;2023-12-04T10:09:05;101435.53;;;1.67;100.00
11413;BME280;5762;43.256;26.960;2023-12-04T10:11:38;101424.27;;;1.78;100.00
11413;BME280;5762;43.256;26.960;2023-12-04T10:14:04;101406.78;;;1.93;100.00
11413;BME280;5762;43.256;26.960;2023-12-04T10:16:38;101398.88;;;1.95;100.00
11413;BME280;5762;43.256;26.960;2023-12-04T10:21:49;101409.36;;;1.97;100.00
11413;BME280;5762;43.256;26.960;2023-12-04T10:24:27;101411.03;;;2.05;100.00
11413;BME280;5762;43.256;26.960;2023-12-04T10:26:57;101411.23;;;2.03;100.00
11413;BME280;5762;43.256;26.960;2023-12-04T10:29:28;101400.34;;;2.11;100.00
11413;BME280;5762;43.256;26.960;2023-12-04T10:31:59;101398.52;;;2.18;100.00
11413;BME280;5762;43.256;26.960;2023-12-04T10:34:28;101381.89;;;2.23;100.00
11413;BME280;5762;43.256;26.960;2023-12-04T10:36:57;101350.42;;;2.12;100.00
11413;BME280;5762;43.256;26.960;2023-12-04T10:39:26;101347.26;;;2.19;100.00
11413;BME280;5762;43.256;26.960;2023-12-04T10:42:04;101347.47;;;2.24;100.00
11413;BME280;5762;43.256;26.960;2023-12-04T10:44:33;101341.41;;;2.26;100.00
11413;BME280;5762;43.256;26.960;2023-12-04T10:47:01;101348.30;;;2.44;100.00
11413;BME280;5762;43.256;26.960;2023-12-04T10:49:30;101333.73;;;2.40;100.00
11413;BME280;5762;43.256;26.960;2023-12-04T10:51:59;101331.97;;;2.30;100.00
11413;BME280;5762;43.256;26.960;2023-12-04T10:54:28;101349.94;;;2.45;100.00
11413;BME280;5762;43.256;26.960;2023-12-04T10:56:58;101388.51;;;2.66;100.00
11413;BME280;5762;43.256;26.960;2023-12-04T10:59:27;101369.88;;;2.49;100.00
11413;BME280;5762;43.256;26.960;2023-12-04T11:01:57;101341.31;;;2.50;100.00
11413;BME280;5762;43.256;26.960;2023-12-04T11:04:26;101360.13;;;2.52;100.00
11413;BME280;5762;43.256;26.960;2023-12-04T11:06:56;101336.78;;;2.50;100.00
11413;BME280;5762;43.256;26.960;2023-12-04T11:09:25;101346.77;;;2.65;100.00
11413;BME280;5762;43.256;26.960;2023-12-04T11:11:56;101338.75;;;2.72;100.00
11413;BME280;5762;43.256;26.960;2023-12-04T11:14:25;101289.20;;;2.63;100.00
11413;BME280;5762;43.256;26.960;2023-12-04T11:16:57;101281.89;;;2.67;100.00
11413;BME280;5762;43.256;26.960;2023-12-04T11:19:32;101303.34;;;2.83;100.00
11413;BME280;5762;43.256;26.960;2023-12-04T11:21:57;101295.71;;;2.93;100.00
11413;BME280;5762;43.256;26.960;2023-12-04T11:24:26;101257.99;;;2.79;100.00
11413;BME280;5762;43.256;26.960;2023-12-04T11:26:54;101244.46;;;2.74;100.00
11413;BME280;5762;43.256;26.960;2023-12-04T11:29:24;101259.47;;;2.75;100.00
11413;BME280;5762;43.256;26.960;2023-12-04T11:31:53;101235.42;;;2.68;100.00
11413;BME280;5762;43.256;26.960;2023-12-04T11:34:21;101229.87;;;2.63;100.00
11413;BME280;5762;43.256;26.960;2023-12-04T11:36:50;101216.12;;;2.53;100.00
11413;BME280;5762;43.256;26.960;2023-12-04T11:39:19;101203.48;;;2.45;100.00
11413;BME280;5762;43.256;26.960;2023-12-04T11:41:47;101220.19;;;2.27;100.00
11413;BME280;5762;43.256;26.960;2023-12-04T11:44:15;101234.46;;;2.23;100.00
11413;BME280;5762;43.256;26.960;2023-12-04T11:46:56;101239.70;;;2.21;100.00
11413;BME280;5762;43.256;26.960;2023-12-04T11:49:28;101241.03;;;2.14;100.00
11413;BME280;5762;43.256;26.960;2023-12-04T11:51:57;101234.45;;;2.10;100.00
11413;BME280;5762;43.256;26.960;2023-12-04T11:54:26;101252.23;;;2.14;100.00
11413;BME280;5762;43.256;26.960;2023-12-04T11:59:39;101255.72;;;2.14;100.00
11413;BME280;5762;43.256;26.960;2023-12-04T12:02:08;101258.39;;;2.21;100.00
11413;BME280;5762;43.256;26.960;2023-12-04T12:04:36;101265.08;;;2.21;100.00
11413;BME280;5762;43.256;26.960;2023-12-04T12:07:07;101267.44;;;2.26;100.00
11413;BME280;5762;43.256;26.960;2023-12-04T12:09:36;101289.44;;;2.42;100.00
11413;BME280;5762;43.256;26.960;2023-12-04T12:12:05;101282.21;;;2.55;100.00
11413;BME280;5762;43.256;26.960;2023-12-04T12:14:34;101254.59;;;2.39;100.00
11413;BME280;5762;43.256;26.960;2023-12-04T12:17:02;101259.19;;;2.48;100.00
11413;BME280;5762;43.256;26.960;2023-12-04T12:19:31;101254.30;;;2.38;100.00
11413;BME280;5762;43.256;26.960;2023-12-04T12:22:00;101233.84;;;2.41;100.00
11413;BME280;5762;43.256;26.960;2023-12-04T12:24:30;101226.55;;;2.39;100.00
11413;BME280;5762;43.256;26.960;2023-12-04T12:26:58;101235.76;;;2.43;100.00
11413;BME280;5762;43.256;26.960;2023-12-04T12:29:27;101253.02;;;2.54;100.00
11413;BME280;5762;43.256;26.960;2023-12-04T12:31:56;101238.67;;;2.42;100.00
11413;BME280;5762;43.256;26.960;2023-12-04T12:34:24;101239.25;;;2.50;100.00
11413;BME280;5762;43.256;26.960;2023-12-04T12:36:53;101229.80;;;2.48;100.00
11413;BME280;5762;43.256;26.960;2023-12-04T12:39:22;101244.18;;;2.53;100.00
11413;BME280;5762;43.256;26.960;2023-12-04T12:41:51;101257.33;;;2.61;100.00
11413;BME280;5762;43.256;26.960;2023-12-04T12:44:19;101254.45;;;2.63;100.00
11413;BME280;5762;43.256;26.960;2023-12-04T12:46:48;101236.05;;;2.64;100.00
11413;BME280;5762;43.256;26.960;2023-12-04T12:49:21;101247.36;;;2.66;100.00
11413;BME280;5762;43.256;26.960;2023-12-04T12:51:48;101238.91;;;2.76;100.00
11413;BME280;5762;43.256;26.960;2023-12-04T12:54:23;101229.35;;;2.71;100.00
11413;BME280;5762;43.256;26.960;2023-12-04T12:56:48;101235.10;;;2.74;100.00
11413;BME280;5762;43.256;26.960;2023-12-04T12:59:17;101232.53;;;2.77;100.00
11413;BME280;5762;43.256;26.960;2023-12-04T13:01:45;101236.80;;;2.84;100.00
11413;BME280;5762;43.256;26.960;2023-12-04T13:04:15;101249.41;;;2.99;100.00
11413;BME280;5762;43.256;26.960;2023-12-04T13:06:44;101254.88;;;3.18;100.00
11413;BME280;5762;43.256;26.960;2023-12-04T13:09:12;101237.37;;;3.22;100.00